Time;durP1;ratioP1;P1;durP2;ratioP2;P2;SDS_P1;SDS_P2;PMS_P1;PMS_P2;Temp;Humidity;BMP_temperature;BMP_pressure;BME280_temperature;BME280_humidity;BME280_pressure;Samples;Min_cycle;Max_cycle;Signal;HPM_P1;HPM_P2
2022/08/14 00:00:11;;;;;;;21.73;12.75;;;;;;;22.14;48.74;100299.16;5032834;28;20443;-47
2022/08/14 00:02:37;;;;;;;16.13;12.20;;;;;;;22.06;48.87;100296.53;5033105;28;20466;-59
2022/08/14 00:05:05;;;;;;;23.27;11.95;;;;;;;22.07;49.29;100306.41;5052243;28;20037;-54
2022/08/14 00:07:30;;;;;;;21.77;10.82;;;;;;;21.98;50.76;100296.63;5052501;28;20480;-51
2022/08/14 00:09:56;;;;;;;22.42;11.68;;;;;;;21.93;49.65;100306.19;5051126;28;20025;-53
2022/08/14 00:12:23;;;;;;;17.58;11.25;;;;;;;21.90;49.46;100306.56;5049297;28;20473;-51
2022/08/14 00:14:49;;;;;;;19.13;11.77;;;;;;;21.88;48.91;100307.81;5052658;28;20098;-54
2022/08/14 00:17:14;;;;;;;21.73;12.48;;;;;;;21.83;49.46;100299.38;5034209;28;20116;-67
2022/08/14 00:19:40;;;;;;;19.98;12.10;;;;;;;21.86;48.78;100288.91;5032975;28;20048;-52
2022/08/14 00:22:05;;;;;;;18.40;12.27;;;;;;;21.91;48.26;100297.38;5031338;28;20411;-55
2022/08/14 00:24:31;;;;;;;20.45;11.48;;;;;;;21.87;48.93;100301.50;5050280;28;20028;-55
2022/08/14 00:26:58;;;;;;;14.98;10.57;;;;;;;21.71;47.79;100274.44;5052392;28;20516;-54
2022/08/14 00:29:23;;;;;;;19.75;11.68;;;;;;;21.75;47.82;100286.66;5042296;28;20159;-52
2022/08/14 00:31:49;;;;;;;15.55;11.57;;;;;;;21.86;48.63;100299.81;5032148;28;20113;-53
2022/08/14 00:34:14;;;;;;;16.48;11.80;;;;;;;21.90;47.64;100298.41;5031452;28;20025;-57
2022/08/14 00:36:40;;;;;;;20.52;12.02;;;;;;;21.83;49.50;100299.38;5052532;28;20453;-50
2022/08/14 00:39:07;;;;;;;19.27;11.30;;;;;;;21.84;48.48;100306.50;5051747;28;20029;-64
2022/08/14 00:41:32;;;;;;;17.88;11.30;;;;;;;21.83;48.06;100294.75;5040689;28;20025;-50
2022/08/14 00:43:58;;;;;;;17.73;10.90;;;;;;;21.77;50.27;100292.78;5032386;28;20116;-50
2022/08/14 00:46:24;;;;;;;17.85;10.80;;;;;;;21.70;49.95;100297.25;5032294;28;20504;-54
2022/08/14 00:48:50;;;;;;;16.38;12.02;;;;;;;21.66;49.12;100294.06;5045044;28;20492;-54
2022/08/14 00:51:15;;;;;;;20.50;12.15;;;;;;;21.54;49.00;100277.28;5052116;28;20487;-52
2022/08/14 00:53:41;;;;;;;18.83;12.27;;;;;;;21.59;49.46;100296.66;5051952;28;20541;-50
2022/08/14 00:56:07;;;;;;;17.95;11.65;;;;;;;21.59;48.73;100293.09;5035258;28;20030;-54
2022/08/14 00:58:34;;;;;;;16.02;11.63;;;;;;;21.55;48.75;100292.59;5031843;28;20064;-53
2022/08/14 01:01:10;;;;;;;13.90;10.85;;;;;;;21.50;48.64;100265.91;5038212;28;20043;-50
2022/08/14 01:03:38;;;;;;;;;;;;;;;21.83;47.59;100292.00;5052142;28;20029;-51
2022/08/14 01:06:07;;;;;;;16.20;10.55;;;;;;;21.55;49.10;100289.00;5051781;28;20359;-50
2022/08/14 01:08:33;;;;;;;15.50;10.25;;;;;;;21.41;49.48;100296.13;5039681;28;20128;-50
2022/08/14 01:10:59;;;;;;;14.90;10.65;;;;;;;21.31;50.61;100302.69;5031540;28;20120;-52
2022/08/14 01:13:32;;;;;;;16.75;10.98;;;;;;;21.30;50.16;100309.16;5031522;28;20436;-54
2022/08/14 01:16:01;;;;;;;16.25;10.73;;;;;;;21.22;50.93;100306.53;5045605;28;20040;-53
2022/08/14 01:21:14;;;;;;;;;;;;;;;21.55;48.44;100308.94;5050582;28;20480;-50
2022/08/14 01:23:43;;;;;;;14.93;10.88;;;;;;;21.26;49.31;100277.88;5051248;28;20418;-51
2022/08/14 01:26:10;;;;;;;14.30;9.93;;;;;;;21.38;49.44;100308.25;5050915;28;20025;-55
2022/08/14 01:28:38;;;;;;;15.52;10.10;;;;;;;21.36;49.03;100302.97;5031380;28;20091;-48
2022/08/14 01:31:12;;;;;;;14.13;9.57;;;;;;;21.38;49.21;100300.09;5031230;28;20029;-52
2022/08/14 01:33:43;;;;;;;15.77;10.65;;;;;;;21.45;48.79;100311.06;5048337;28;20033;-51
2022/08/14 01:36:10;;;;;;;18.40;10.38;;;;;;;21.55;48.79;100308.94;5050772;28;20810;-59
2022/08/14 01:38:41;;;;;;;15.90;10.20;;;;;;;21.62;48.25;100311.78;5034682;28;20440;-53
2022/08/14 01:41:10;;;;;;;14.35;10.02;;;;;;;21.55;48.78;100306.22;5051029;28;20032;-54
2022/08/14 01:44:04;;;;;;;14.70;10.43;;;;;;;21.55;48.63;100302.63;5050656;28;20037;-48
2022/08/14 01:46:33;;;;;;;13.70;9.27;;;;;;;21.41;49.00;100312.47;5049848;28;20068;-52
2022/08/14 01:49:00;;;;;;;12.48;9.60;;;;;;;21.34;49.79;100307.75;5050820;28;20051;-54
2022/08/14 01:51:27;;;;;;;13.13;10.38;;;;;;;21.25;49.78;100317.03;5048851;28;20048;-51
2022/08/14 01:53:59;;;;;;;14.68;9.50;;;;;;;21.26;49.44;100316.00;5050745;28;20040;-54
2022/08/14 01:59:04;;;;;;;12.50;9.70;;;;;;;20.87;50.41;100277.00;5036216;28;20389;-52
2022/08/14 02:01:30;;;;;;;14.23;9.77;;;;;;;21.12;49.66;100312.19;5050363;28;20037;-54
2022/08/14 02:03:56;;;;;;;13.90;9.40;;;;;;;21.11;49.77;100315.09;5044137;28;20535;-51
2022/08/14 02:06:21;;;;;;;15.38;9.30;;;;;;;21.18;49.52;100321.50;5031068;28;20052;-66
2022/08/14 02:08:47;;;;;;;10.23;9.02;;;;;;;21.25;49.08;100319.75;5030802;28;20355;-51
2022/08/14 02:11:21;;;;;;;13.57;8.95;;;;;;;21.31;49.53;100316.31;5038987;28;20078;-52
2022/08/14 02:14:03;;;;;;;11.80;9.70;;;;;;;21.48;48.49;100321.63;5051224;28;20040;-52
2022/08/14 02:16:32;;;;;;;14.52;8.93;;;;;;;21.42;48.95;100316.88;5047046;28;20488;-52
2022/08/14 02:19:00;;;;;;;14.68;9.00;;;;;;;21.48;49.18;100321.63;5029495;28;20034;-53
2022/08/14 02:21:31;;;;;;;11.05;9.18;;;;;;;21.46;49.22;100321.78;5030906;28;20048;-50
2022/08/14 02:23:56;;;;;;;12.93;9.55;;;;;;;21.42;49.15;100315.03;5045793;28;20381;-59
2022/08/14 02:26:25;;;;;;;15.00;8.73;;;;;;;21.36;49.27;100327.50;5049976;28;20032;-68
2022/08/14 02:28:58;;;;;;;15.95;9.30;;;;;;;21.43;49.50;100329.47;5044112;28;20114;-53
2022/08/14 02:31:29;;;;;;;15.45;9.20;;;;;;;21.40;49.47;100327.13;5030997;28;20477;-52
2022/08/14 02:33:55;;;;;;;14.25;9.27;;;;;;;21.35;49.69;100325.78;5030179;28;20037;-50
2022/08/14 02:36:21;;;;;;;12.35;9.35;;;;;;;21.28;50.49;100329.44;5048280;28;20461;-49
2022/08/14 02:38:48;;;;;;;17.17;9.73;;;;;;;21.16;49.61;100312.66;5050397;28;20033;-48
2022/08/14 02:41:14;;;;;;;10.90;9.38;;;;;;;21.35;49.81;100325.78;5048902;28;20477;-49
2022/08/14 02:43:40;;;;;;;14.10;9.48;;;;;;;21.39;49.86;100331.72;5041447;28;20033;-52
2022/08/14 02:46:09;;;;;;;13.45;9.73;;;;;;;21.41;49.40;100331.53;5033355;28;20053;-58
2022/08/14 02:48:39;;;;;;;17.98;9.13;;;;;;;21.45;49.44;100335.59;5051787;28;20362;-54
2022/08/14 02:51:11;;;;;;;12.52;9.48;;;;;;;21.57;48.96;100328.69;5054389;28;20414;-51
2022/08/14 02:53:43;;;;;;;12.40;9.35;;;;;;;21.70;48.76;100332.66;5052423;28;20052;-52
2022/08/14 02:56:12;;;;;;;13.10;8.80;;;;;;;21.69;48.98;100329.13;5054180;28;20614;-52
2022/08/14 02:58:41;;;;;;;13.50;9.27;;;;;;;21.75;48.58;100333.81;5049221;28;20501;-53
2022/08/14 03:01:08;;;;;;;13.77;9.25;;;;;;;21.84;48.63;100337.31;5031899;28;20039;-56
2022/08/14 03:03:35;;;;;;;12.52;10.38;;;;;;;21.91;48.35;100324.63;5033844;28;20152;-52
2022/08/14 03:06:03;;;;;;;14.73;10.15;;;;;;;21.94;47.85;100335.19;5040552;28;20021;-51
2022/08/14 03:08:32;;;;;;;11.90;10.45;;;;;;;22.01;48.14;100337.16;5052534;28;20040;-50
2022/08/14 03:11:05;;;;;;;11.88;10.68;;;;;;;22.07;47.71;100344.56;5054071;28;20029;-52
2022/08/14 03:13:33;;;;;;;16.40;11.25;;;;;;;22.12;47.44;100338.56;5050936;28;20049;-50
2022/08/14 03:15:58;;;;;;;15.98;11.10;;;;;;;22.25;47.36;100335.19;5053665;28;20033;-48
2022/08/14 03:18:26;;;;;;;15.25;11.50;;;;;;;22.29;47.28;100339.22;5051060;28;20031;-52
2022/08/14 03:20:52;;;;;;;15.13;11.43;;;;;;;22.32;47.47;100342.44;5034144;28;20116;-53
2022/08/14 03:23:18;;;;;;;14.75;11.25;;;;;;;22.40;47.32;100343.38;5033238;28;20051;-55
2022/08/14 03:25:45;;;;;;;16.95;11.27;;;;;;;22.43;46.97;100338.38;5037419;28;20361;-55
2022/08/14 03:28:11;;;;;;;13.23;10.35;;;;;;;22.48;46.76;100341.41;5053095;28;20079;-52
2022/08/14 03:30:37;;;;;;;16.08;11.07;;;;;;;22.55;46.80;100341.50;5053408;28;20056;-51
2022/08/14 03:33:04;;;;;;;16.98;11.13;;;;;;;22.67;46.56;100350.06;5051720;28;20086;-51
2022/08/14 03:35:30;;;;;;;15.90;10.38;;;;;;;22.72;46.45;100353.06;5053185;28;20033;-52
2022/08/14 03:38:11;;;;;;;18.38;10.60;;;;;;;22.87;46.43;100338.50;5047253;28;20061;-68
2022/08/14 03:40:38;;;;;;;17.27;10.80;;;;;;;22.88;46.30;100354.72;5033309;28;20142;-54
2022/08/14 03:43:06;;;;;;;12.30;10.00;;;;;;;23.04;45.99;100345.44;5033289;28;20030;-56
2022/08/14 03:45:38;;;;;;;17.15;11.48;;;;;;;23.26;45.26;100348.19;5033475;28;20341;-57
2022/08/14 03:48:18;;;;;;;14.57;9.95;;;;;;;23.48;45.05;100350.94;5031554;28;20542;-48
2022/08/14 03:50:50;;;;;;;14.60;10.57;;;;;;;24.31;43.18;100338.50;5037648;28;20036;-52
2022/08/14 03:53:18;;;;;;;13.80;10.73;;;;;;;25.69;40.72;100333.88;5052896;28;20033;-55
2022/08/14 03:55:46;;;;;;;13.98;11.07;;;;;;;27.17;37.23;100332.56;5052627;28;20032;-48
2022/08/14 03:58:12;;;;;;;18.27;11.18;;;;;;;28.54;34.19;100332.78;5035682;28;20032;-55
2022/08/14 04:00:39;;;;;;;13.40;10.55;;;;;;;29.57;32.46;100332.00;5033026;28;20087;-51
2022/08/14 04:03:07;;;;;;;14.75;11.18;;;;;;;30.46;31.05;100332.06;5039249;28;20078;-52
2022/08/14 04:05:33;;;;;;;12.02;10.57;;;;;;;31.16;29.70;100321.03;5052718;28;20037;-51
2022/08/14 04:07:59;;;;;;;14.45;11.05;;;;;;;32.01;28.53;100328.50;5052648;28;20056;-53
2022/08/14 04:10:25;;;;;;;11.95;9.80;;;;;;;32.47;27.25;100304.19;5042693;28;20025;-50
2022/08/14 04:12:51;;;;;;;15.13;10.07;;;;;;;33.41;26.10;100317.09;5032466;28;20091;-52
2022/08/14 04:15:20;;;;;;;11.95;9.63;;;;;;;34.10;25.33;100327.59;5032620;28;20049;-53
2022/08/14 04:17:45;;;;;;;11.20;9.50;;;;;;;34.84;24.04;100324.84;5044742;28;20503;-53
2022/08/14 04:20:12;;;;;;;13.60;9.95;;;;;;;35.21;23.46;100329.41;5052019;28;20040;-54
2022/08/14 04:22:42;;;;;;;14.27;9.52;;;;;;;35.39;23.27;100332.72;5052245;28;20048;-58
2022/08/14 04:25:09;;;;;;;11.48;9.23;;;;;;;35.99;22.68;100332.13;5050742;28;20037;-57
2022/08/14 04:27:35;;;;;;;9.35;8.45;;;;;;;36.30;22.23;100326.47;5052394;28;20037;-52
2022/08/14 04:30:01;;;;;;;11.55;8.77;;;;;;;36.71;21.31;100334.69;5049754;28;20028;-54
2022/08/14 04:32:28;;;;;;;14.93;8.88;;;;;;;37.26;21.02;100328.19;5045711;28;20067;-54
2022/08/14 04:34:54;;;;;;;9.10;6.85;;;;;;;37.80;19.89;100331.06;5041074;28;20064;-51
2022/08/14 04:45:41;;;;;;;9.77;7.78;;;;;;;39.91;17.89;100334.00;5041297;28;20033;-55
2022/08/14 04:48:15;;;;;;;8.38;7.13;;;;;;;40.10;17.38;100345.13;5039685;28;20028;-58
2022/08/14 04:50:49;;;;;;;8.68;7.40;;;;;;;41.06;16.77;100352.09;5040023;28;20026;-59
2022/08/14 04:53:20;;;;;;;8.25;7.32;;;;;;;41.98;16.00;100337.66;5040140;28;20038;-60
2022/08/14 04:55:47;;;;;;;8.52;6.80;;;;;;;42.55;15.47;100338.03;5040511;28;20108;-59
2022/08/14 04:58:21;;;;;;;10.50;5.95;;;;;;;43.30;15.33;100346.38;5039639;28;20061;-60
2022/08/14 05:00:49;;;;;;;10.03;6.50;;;;;;;43.70;14.01;100303.00;5039988;28;20022;-61
2022/08/14 05:03:19;;;;;;;9.38;7.03;;;;;;;44.45;13.65;100343.13;5040279;28;20025;-60
2022/08/14 05:05:47;;;;;;;11.32;7.22;;;;;;;44.63;13.27;100335.41;5038126;28;20029;-60
2022/08/14 05:08:13;;;;;;;7.28;6.60;;;;;;;44.92;13.04;100333.72;5039778;28;20523;-61
2022/08/14 05:10:45;;;;;;;7.75;6.93;;;;;;;45.25;13.01;100340.56;5040632;28;20067;-59
2022/08/14 05:13:12;;;;;;;8.57;6.43;;;;;;;45.69;12.14;100331.63;5040349;28;20557;-60
2022/08/14 05:15:40;;;;;;;6.53;5.63;;;;;;;45.98;11.97;100343.91;5040186;28;20396;-60
2022/08/14 05:18:12;;;;;;;6.80;5.57;;;;;;;46.68;11.44;100331.63;5040641;28;20037;-59
2022/08/14 05:20:44;;;;;;;5.88;5.30;;;;;;;47.33;10.93;100338.34;5040174;28;20473;-60
2022/08/14 05:23:14;;;;;;;6.88;5.43;;;;;;;47.57;10.54;100309.03;5038906;28;20378;-60
2022/08/14 05:25:40;;;;;;;5.88;5.28;;;;;;;48.24;10.16;100332.19;5039483;28;20366;-59
2022/08/14 05:28:11;;;;;;;6.22;5.50;;;;;;;48.86;10.52;100334.41;5040828;28;20025;-59
2022/08/14 05:30:38;;;;;;;8.25;6.03;;;;;;;49.26;10.06;100327.50;5033566;28;20561;-61
2022/08/14 05:33:04;;;;;;;6.53;5.95;;;;;;;49.58;9.25;100322.81;5031226;28;20060;-61
2022/08/14 05:35:31;;;;;;;7.20;5.88;;;;;;;49.79;9.22;100320.31;5032470;28;20116;-64
2022/08/14 05:37:58;;;;;;;6.78;6.05;;;;;;;49.85;9.54;100323.66;5031495;28;20469;-62
2022/08/14 05:40:24;;;;;;;7.13;5.63;;;;;;;50.04;9.12;100317.06;5031330;28;20033;-61
2022/08/14 05:42:50;;;;;;;7.05;5.50;;;;;;;50.65;8.70;100311.47;5044910;28;20059;-61
2022/08/14 05:45:16;;;;;;;7.60;5.53;;;;;;;51.20;8.55;100303.53;5050751;28;20070;-64
2022/08/14 05:47:41;;;;;;;6.25;5.68;;;;;;;51.34;8.20;100302.88;5046526;28;20394;-60
2022/08/14 05:50:12;;;;;;;6.85;6.25;;;;;;;51.79;7.92;100298.00;5031022;28;20362;-59
2022/08/14 05:52:38;;;;;;;7.38;6.68;;;;;;;52.43;7.30;100309.44;5045447;28;20066;-61
2022/08/14 05:55:06;;;;;;;9.30;6.82;;;;;;;52.70;7.84;100318.59;5033846;28;20119;-61
2022/08/14 05:57:31;;;;;;;7.30;6.60;;;;;;;53.06;6.75;100312.19;5030822;28;20477;-64
2022/08/14 05:59:57;;;;;;;8.13;7.32;;;;;;;53.42;6.58;100306.53;5036498;28;20028;-61
2022/08/14 06:02:22;;;;;;;8.43;6.53;;;;;;;53.94;6.86;100299.53;5050325;28;20032;-61
2022/08/14 06:04:48;;;;;;;6.80;6.10;;;;;;;54.03;6.22;100310.59;5047691;28;20440;-60
2022/08/14 06:07:14;;;;;;;7.18;6.18;;;;;;;53.99;6.33;100307.72;5031116;28;20107;-60
2022/08/14 06:09:40;;;;;;;5.70;5.20;;;;;;;54.57;5.69;100315.34;5033803;28;20069;-60
2022/08/14 06:12:09;;;;;;;6.85;6.30;;;;;;;54.85;5.96;100308.69;5042609;28;20113;-59
2022/08/14 06:14:36;;;;;;;7.00;5.90;;;;;;;54.69;5.88;100314.06;5031048;28;20498;-60
2022/08/14 06:17:02;;;;;;;7.78;6.28;;;;;;;54.49;6.05;100303.94;5030943;28;20385;-64
2022/08/14 06:19:28;;;;;;;5.90;5.20;;;;;;;54.51;5.59;100295.75;5042941;28;20104;-59
2022/08/14 06:21:53;;;;;;;5.70;5.15;;;;;;;54.92;5.75;100307.84;5053216;28;20123;-60
2022/08/14 06:24:19;;;;;;;6.05;5.20;;;;;;;55.43;5.65;100299.72;5052673;28;20476;-60
2022/08/14 06:26:46;;;;;;;5.30;4.80;;;;;;;55.91;4.49;100308.72;5039323;28;20034;-60
2022/08/14 06:29:11;;;;;;;5.63;5.13;;;;;;;56.49;4.59;100296.63;5032448;28;20037;-61
2022/08/14 06:31:37;;;;;;;5.65;4.93;;;;;;;56.85;4.30;100306.84;5033697;28;20083;-63
2022/08/14 06:34:02;;;;;;;5.75;5.15;;;;;;;57.06;4.40;100299.97;5032887;28;20037;-60
2022/08/14 06:36:28;;;;;;;5.10;4.68;;;;;;;57.63;4.54;100297.41;5033670;28;20528;-59
2022/08/14 06:38:54;;;;;;;7.30;5.18;;;;;;;58.02;3.83;100295.06;5047833;28;20504;-59
2022/08/14 06:41:20;;;;;;;5.03;4.55;;;;;;;57.91;3.78;100301.06;5054670;28;20116;-60
2022/08/14 06:43:45;;;;;;;5.90;5.43;;;;;;;57.97;4.37;100298.44;5049263;28;20393;-59
2022/08/14 06:46:11;;;;;;;5.88;5.47;;;;;;;58.17;3.94;100305.03;5032478;28;20034;-59
2022/08/14 06:48:36;;;;;;;4.93;4.63;;;;;;;57.74;3.91;100298.03;5033938;28;20033;-59
2022/08/14 06:51:02;;;;;;;6.33;5.80;;;;;;;57.68;4.25;100293.22;5049823;28;20103;-61
2022/08/14 06:53:27;;;;;;;5.45;4.93;;;;;;;57.85;3.64;100299.88;5053972;28;20296;-59
2022/08/14 06:55:53;;;;;;;4.90;4.60;;;;;;;57.97;3.74;100290.63;5053941;28;20047;-60
2022/08/14 06:58:18;;;;;;;6.10;5.70;;;;;;;58.38;3.94;100296.44;5035677;28;20263;-62
2022/08/14 07:06:14;;;;;;;7.60;7.00;;;;;;;59.66;3.61;100304.53;5033867;28;20025;-59
2022/08/14 07:08:41;;;;;;;7.70;7.00;;;;;;;59.25;2.98;100309.72;5037166;28;20059;-60
2022/08/14 07:11:06;;;;;;;6.68;6.15;;;;;;;58.45;3.10;100291.28;5054124;28;20032;-60
2022/08/14 07:13:32;;;;;;;6.40;5.80;;;;;;;58.29;3.00;100292.06;5053386;28;20075;-59
2022/08/14 07:15:59;;;;;;;6.77;6.27;;;;;;;58.24;3.27;100301.22;5038216;28;20506;-59
2022/08/14 07:18:32;;;;;;;7.15;6.65;;;;;;;58.11;3.80;100291.59;5033237;28;20263;-60
2022/08/14 07:21:01;;;;;;;7.05;6.40;;;;;;;56.96;4.07;100283.69;5033329;28;20029;-58
2022/08/14 07:23:27;;;;;;;6.93;6.32;;;;;;;55.45;5.07;100271.41;5051811;28;20040;-60
2022/08/14 07:25:54;;;;;;;5.45;4.95;;;;;;;55.43;4.43;100278.84;5053183;28;20389;-61
2022/08/14 07:28:33;;;;;;;5.43;5.00;;;;;;;56.14;4.30;100281.44;5051876;28;20041;-61
2022/08/14 07:31:02;;;;;;;5.60;5.20;;;;;;;57.21;4.10;100289.88;5052560;28;20175;-61
2022/08/14 07:33:31;;;;;;;6.15;5.55;;;;;;;58.02;3.97;100292.19;5051605;28;20025;-60
2022/08/14 07:36:00;;;;;;;6.25;5.88;;;;;;;58.44;2.79;100280.22;5046667;28;20521;-61
2022/08/14 07:38:28;;;;;;;5.80;5.40;;;;;;;58.87;2.85;100299.47;5033411;28;20045;-60
2022/08/14 07:40:54;;;;;;;5.70;5.35;;;;;;;58.37;2.52;100289.03;5033326;28;20092;-61
2022/08/14 07:43:21;;;;;;;6.88;6.25;;;;;;;58.25;2.49;100276.91;5041343;28;20029;-60
2022/08/14 07:45:47;;;;;;;6.05;5.68;;;;;;;58.38;2.58;100270.47;5052686;28;20037;-60
2022/08/14 07:48:12;;;;;;;7.13;6.70;;;;;;;58.57;2.92;100266.75;5052743;28;20031;-60
2022/08/14 07:50:38;;;;;;;6.55;6.15;;;;;;;58.33;2.58;100275.50;5051001;28;20039;-63
2022/08/14 07:53:05;;;;;;;7.40;6.70;;;;;;;57.85;3.42;100276.84;5053212;28;20248;-59
2022/08/14 07:55:31;;;;;;;6.75;6.25;;;;;;;57.78;3.52;100277.81;5052196;28;20075;-60
2022/08/14 07:57:57;;;;;;;8.18;7.57;;;;;;;56.79;3.60;100261.28;5051115;28;20370;-60
2022/08/14 08:00:24;;;;;;;6.53;5.85;;;;;;;55.38;4.41;100273.56;5052777;28;20040;-61
2022/08/14 08:02:53;;;;;;;6.60;6.20;;;;;;;54.79;4.32;100273.91;5051413;28;20048;-60
2022/08/14 08:05:20;;;;;;;5.60;5.25;;;;;;;53.86;4.48;100278.69;5051920;28;20116;-58
2022/08/14 08:07:47;;;;;;;4.57;4.22;;;;;;;52.44;5.64;100271.09;5051742;28;20115;-60
2022/08/14 08:10:30;;;;;;;5.80;4.68;;;;;;;52.36;5.96;100279.66;5049435;28;20024;-59
2022/08/14 08:13:17;;;;;;;6.53;4.75;;;;;;;52.08;6.17;100280.28;5051716;28;20060;-60
2022/08/14 08:15:49;;;;;;;5.85;4.60;;;;;;;50.33;6.76;100266.25;5050761;28;20067;-61
2022/08/14 08:18:16;;;;;;;7.20;4.28;;;;;;;47.43;8.85;100264.13;5052805;28;20069;-61
2022/08/14 08:20:45;;;;;;;6.00;4.25;;;;;;;44.62;10.54;100280.13;5052531;28;20029;-61
2022/08/14 08:23:15;;;;;;;4.57;4.18;;;;;;;42.03;13.11;100275.66;5050907;28;20083;-62
2022/08/14 08:25:42;;;;;;;6.15;4.40;;;;;;;39.98;14.64;100291.53;5052305;28;20441;-61
2022/08/14 08:28:10;;;;;;;5.93;4.38;;;;;;;38.76;15.61;100265.03;5044749;28;20038;-61
2022/08/14 08:30:38;;;;;;;6.13;5.20;;;;;;;37.90;17.08;100263.91;5051282;28;20044;-61
2022/08/14 08:33:05;;;;;;;5.78;5.20;;;;;;;37.14;17.56;100266.34;5052242;28;20029;-62
2022/08/14 08:35:33;;;;;;;8.85;4.75;;;;;;;36.71;18.15;100275.25;5050699;28;20032;-60
2022/08/14 08:38:04;;;;;;;7.43;5.18;;;;;;;36.30;18.94;100279.94;5052450;28;20476;-59
2022/08/14 08:40:41;;;;;;;6.63;5.75;;;;;;;35.65;19.18;100255.63;5050126;28;20076;-61
2022/08/14 08:43:15;;;;;;;7.80;5.40;;;;;;;35.28;19.87;100279.84;5051706;28;20056;-61
2022/08/14 08:45:41;;;;;;;7.20;4.73;;;;;;;35.04;20.14;100268.44;5052368;28;20029;-63
2022/08/14 08:48:06;;;;;;;6.07;4.95;;;;;;;34.91;20.35;100272.56;5050871;28;20028;-61
2022/08/14 08:50:34;;;;;;;6.93;5.32;;;;;;;34.78;19.99;100266.44;5051857;28;20033;-61
2022/08/14 08:53:04;;;;;;;5.75;5.25;;;;;;;34.81;19.95;100261.44;5050029;28;20517;-60
2022/08/14 08:55:33;;;;;;;5.35;4.72;;;;;;;34.91;19.82;100253.09;5052023;28;20036;-61
2022/08/14 08:58:16;;;;;;;5.30;4.80;;;;;;;35.15;18.83;100242.28;5052076;28;20032;-62
2022/08/14 09:00:47;;;;;;;6.07;4.40;;;;;;;35.37;18.76;100249.50;5050989;28;20109;-63
2022/08/14 09:03:27;;;;;;;5.72;4.85;;;;;;;35.59;19.22;100254.78;5048062;28;20370;-61
2022/08/14 09:06:04;;;;;;;6.20;5.57;;;;;;;35.74;19.23;100258.66;5048153;28;20041;-60
2022/08/14 09:08:33;;;;;;;7.43;5.18;;;;;;;35.80;19.04;100253.88;5047966;28;20533;-59
2022/08/14 09:11:08;;;;;;;5.82;5.32;;;;;;;35.90;18.90;100257.47;5047119;28;20044;-61
2022/08/14 09:13:34;;;;;;;5.07;4.57;;;;;;;35.66;19.42;100251.72;5047870;28;20041;-63
2022/08/14 09:16:00;;;;;;;8.15;4.82;;;;;;;35.62;19.12;100247.81;5047983;28;20084;-60
2022/08/14 09:18:26;;;;;;;4.45;4.00;;;;;;;35.43;18.35;100255.88;5047519;28;20033;-62
2022/08/14 09:20:56;;;;;;;4.65;4.25;;;;;;;35.43;18.52;100258.66;5047906;28;20029;-61
2022/08/14 09:23:21;;;;;;;5.95;4.30;;;;;;;35.43;18.81;100250.31;5047169;28;20033;-62
2022/08/14 09:25:50;;;;;;;4.78;4.38;;;;;;;35.50;18.80;100256.44;5047941;28;20025;-62
2022/08/14 09:28:17;;;;;;;5.30;4.80;;;;;;;35.57;18.92;100248.66;5047662;28;20030;-61
2022/08/14 09:30:53;;;;;;;8.60;4.18;;;;;;;35.62;18.58;100250.63;5047488;28;20069;-65
2022/08/14 09:33:40;;;;;;;7.50;4.82;;;;;;;35.67;18.83;100246.97;5046718;28;20564;-63
2022/08/14 09:36:11;;;;;;;8.65;4.82;;;;;;;35.41;19.09;100249.75;5047797;28;20112;-62
2022/08/14 09:38:57;;;;;;;14.07;4.95;;;;;;;35.39;19.02;100257.56;5045996;28;20124;-61
2022/08/14 09:42:01;;;;;;;6.80;5.13;;;;;;;35.24;19.27;100245.34;5047376;28;20021;-60
2022/08/14 09:44:45;;;;;;;5.47;4.90;;;;;;;34.81;19.73;100236.41;5043788;28;20116;-61
2022/08/14 09:47:13;;;;;;;7.35;4.90;;;;;;;34.61;20.21;100243.59;5032846;28;20408;-62
2022/08/14 09:49:41;;;;;;;8.50;5.57;;;;;;;34.48;20.07;100245.81;5034247;28;20033;-62
2022/08/14 09:52:11;;;;;;;6.82;5.00;;;;;;;34.39;20.44;100236.28;5028891;28;20176;-61
2022/08/14 09:54:41;;;;;;;7.35;5.28;;;;;;;34.46;20.49;100238.81;5027831;28;20033;-63
2022/08/14 09:57:09;;;;;;;6.65;5.28;;;;;;;34.22;20.44;100242.91;5029072;28;20026;-62
2022/08/14 09:59:46;;;;;;;6.03;5.43;;;;;;;34.16;20.51;100244.00;5045290;28;20041;-63
2022/08/14 10:02:22;;;;;;;6.47;5.30;;;;;;;33.90;21.30;100235.53;5046489;28;20054;-63
2022/08/14 10:04:58;;;;;;;5.75;5.25;;;;;;;33.58;21.03;100239.25;5047803;28;20033;-59
2022/08/14 10:07:34;;;;;;;6.70;5.57;;;;;;;33.26;21.72;100236.50;5045337;28;20040;-62
2022/08/14 10:10:00;;;;;;;7.60;5.20;;;;;;;32.94;22.52;100224.31;5027929;28;20054;-66
2022/08/14 10:12:49;;;;;;;5.38;4.85;;;;;;;33.29;21.93;100236.81;5027108;28;20029;-61
2022/08/14 10:15:18;;;;;;;5.75;5.25;;;;;;;33.21;21.08;100240.91;5031036;28;20026;-61
2022/08/14 10:17:45;;;;;;;5.60;5.13;;;;;;;33.21;21.23;100234.50;5034121;28;20029;-62
2022/08/14 10:20:12;;;;;;;7.40;5.00;;;;;;;33.28;21.70;100235.16;5032425;28;20466;-62
2022/08/14 10:22:38;;;;;;;5.50;5.00;;;;;;;33.44;21.44;100221.38;5034341;28;20029;-63
2022/08/14 10:25:14;;;;;;;5.50;5.00;;;;;;;33.74;21.27;100242.09;5033968;28;20061;-64
2022/08/14 10:27:40;;;;;;;6.30;5.43;;;;;;;33.46;21.62;100238.59;5032964;28;20037;-60
2022/08/14 10:30:15;;;;;;;7.47;5.40;;;;;;;33.37;21.73;100246.56;5033643;28;20026;-60
2022/08/14 10:32:47;;;;;;;;;;;;;;;33.52;20.89;100237.56;5032512;28;20113;-61
2022/08/14 10:35:14;;;;;;;6.00;5.22;;;;;;;32.56;22.89;100238.06;5034052;28;19909;-61
2022/08/14 10:37:48;;;;;;;7.65;6.00;;;;;;;32.24;23.49;100240.72;5031855;28;20232;-60
2022/08/14 10:40:25;;;;;;;7.32;5.93;;;;;;;31.98;24.04;100243.16;5034034;28;20029;-62
2022/08/14 10:42:51;;;;;;;7.18;5.65;;;;;;;31.69;23.45;100219.22;5033718;28;20040;-62
2022/08/14 10:45:23;;;;;;;6.25;5.65;;;;;;;31.79;23.68;100237.94;5019896;28;20034;-61
2022/08/14 10:47:49;;;;;;;7.90;6.03;;;;;;;31.55;23.91;100238.13;5013586;28;20385;-62
2022/08/14 10:50:16;;;;;;;6.60;5.55;;;;;;;31.53;24.21;100240.31;5014290;28;20112;-62
2022/08/14 10:52:42;;;;;;;9.10;5.70;;;;;;;31.64;23.88;100231.06;5012516;28;20390;-62
2022/08/14 10:55:18;;;;;;;5.55;5.00;;;;;;;31.69;23.65;100243.31;5013621;28;20045;-61
2022/08/14 10:58:01;;;;;;;6.80;5.13;;;;;;;31.67;23.65;100239.97;5014464;28;20061;-62
2022/08/14 11:00:28;;;;;;;8.38;5.28;;;;;;;31.39;24.46;100239.00;5013299;28;20084;-61
2022/08/14 11:03:01;;;;;;;7.78;5.93;;;;;;;31.50;24.15;100240.81;5014022;28;20167;-62
2022/08/14 11:05:41;;;;;;;5.97;5.38;;;;;;;31.36;24.71;100240.34;5013190;28;20041;-62
2022/08/14 11:08:07;;;;;;;7.70;5.53;;;;;;;31.27;24.89;100233.56;5013237;28;20034;-62
2022/08/14 11:10:38;;;;;;;7.72;6.13;;;;;;;31.26;24.95;100238.25;5013995;28;20022;-60
2022/08/14 11:13:05;;;;;;;7.82;6.20;;;;;;;31.03;25.29;100237.28;5012873;28;20453;-61
2022/08/14 11:15:31;;;;;;;6.53;5.93;;;;;;;30.89;25.20;100231.25;5021622;28;20118;-60
2022/08/14 11:17:57;;;;;;;7.28;6.43;;;;;;;30.84;25.20;100227.53;5032204;28;20249;-61
2022/08/14 11:20:26;;;;;;;6.85;6.10;;;;;;;30.60;25.61;100208.28;5032585;28;20471;-61
2022/08/14 11:22:53;;;;;;;6.40;5.80;;;;;;;30.78;25.45;100238.50;5018144;28;20045;-61
2022/08/14 11:25:22;;;;;;;7.80;6.15;;;;;;;30.68;25.40;100230.03;5011705;28;20026;-61
2022/08/14 11:27:50;;;;;;;6.65;5.57;;;;;;;30.75;25.18;100233.50;5017450;28;20474;-61
2022/08/14 11:30:21;;;;;;;7.03;6.20;;;;;;;30.86;25.14;100231.75;5032375;28;20073;-61
2022/08/14 11:32:49;;;;;;;7.47;6.13;;;;;;;30.93;24.94;100229.66;5032408;28;20484;-62
2022/08/14 11:35:18;;;;;;;6.57;5.70;;;;;;;31.00;24.97;100226.72;5030751;28;20021;-60
2022/08/14 11:38:04;;;;;;;6.47;5.78;;;;;;;31.27;24.54;100237.16;5031975;28;20080;-60
2022/08/14 11:40:36;;;;;;;11.00;6.13;;;;;;;31.28;24.37;100227.75;5029362;28;20038;-61
2022/08/14 11:43:04;;;;;;;6.63;6.03;;;;;;;31.27;24.27;100228.84;5012613;28;20042;-62
2022/08/14 11:45:33;;;;;;;8.55;5.43;;;;;;;31.22;24.43;100228.78;5012243;28;20136;-61
2022/08/14 11:48:00;;;;;;;7.00;5.88;;;;;;;31.24;24.68;100232.13;5013397;28;20486;-62